createdAt,value
2023-03-26T00:02:06.343Z,100508.28
2023-03-26T00:04:38.375Z,100515.97
2023-03-26T00:07:05.661Z,100517.59
2023-03-26T00:09:39.017Z,100517.44
2023-03-26T00:12:06.436Z,100509.47
2023-03-26T00:14:35.362Z,100512.91
2023-03-26T00:17:04.307Z,100516.22
2023-03-26T00:19:33.900Z,100517.09
2023-03-26T00:22:03.579Z,100514.31
2023-03-26T00:24:31.051Z,100514.31
2023-03-26T00:26:59.650Z,100510.78
2023-03-26T00:29:28.157Z,100509.03
2023-03-26T00:31:55.565Z,100505.63
2023-03-26T00:34:23.529Z,100503.88
2023-03-26T00:36:55.189Z,100500.50
2023-03-26T00:39:33.650Z,100499.66
2023-03-26T00:42:06.977Z,100500.63
2023-03-26T00:44:35.822Z,100487.75
2023-03-26T00:47:03.685Z,100480.25
2023-03-26T00:49:32.015Z,100480.38
2023-03-26T00:51:59.315Z,100474.59
2023-03-26T00:54:27.104Z,100473.16
2023-03-26T00:56:56.022Z,100466.53
2023-03-26T00:59:23.690Z,100469.34
2023-03-26T01:01:55.065Z,100469.63
2023-03-26T01:04:31.793Z,100473.38
2023-03-26T01:07:10.616Z,100471.06
2023-03-26T01:09:50.347Z,100467.81
2023-03-26T01:12:31.884Z,100467.97
2023-03-26T01:15:02.321Z,100450.69
2023-03-26T01:17:34.217Z,100450.63
2023-03-26T01:20:38.849Z,100441.22
2023-03-26T01:23:08.837Z,100446.34
2023-03-26T01:25:51.200Z,100432.66
2023-03-26T01:28:20.142Z,100429.09
2023-03-26T01:31:48.177Z,100423.94
2023-03-26T01:35:18.444Z,100420.50
2023-03-26T01:38:26.164Z,100409.63
2023-03-26T01:41:31.170Z,100410.00
2023-03-26T01:44:17.122Z,100406.00
2023-03-26T01:46:47.685Z,100400.13
2023-03-26T01:49:15.334Z,100396.06
2023-03-26T01:51:43.280Z,100385.72
2023-03-26T01:54:22.837Z,100389.44
2023-03-26T01:57:23.766Z,100387.03
2023-03-26T02:00:18.414Z,100383.75
2023-03-26T02:03:24.686Z,100379.50
2023-03-26T02:06:23.639Z,100391.75
2023-03-26T02:09:05.780Z,100385.91
2023-03-26T02:11:36.076Z,100382.53
2023-03-26T02:14:08.313Z,100374.03
2023-03-26T02:16:35.842Z,100366.28
2023-03-26T02:19:05.078Z,100363.81
2023-03-26T02:21:34.122Z,100361.28
2023-03-26T02:24:05.153Z,100358.69
2023-03-26T02:26:37.782Z,100359.56
2023-03-26T02:29:20.290Z,100352.69
2023-03-26T02:31:49.639Z,100349.22
2023-03-26T02:34:17.652Z,100342.38
2023-03-26T02:36:53.315Z,100337.16
2023-03-26T02:39:21.387Z,100336.34
2023-03-26T02:41:59.588Z,100340.72
2023-03-26T02:44:29.726Z,100331.22
2023-03-26T02:46:59.900Z,100334.69
2023-03-26T02:49:51.681Z,100329.63
2023-03-26T02:52:37.038Z,100326.09
2023-03-26T02:55:07.380Z,100326.09
2023-03-26T02:57:35.719Z,100316.59
2023-03-26T03:00:17.112Z,100310.53
2023-03-26T03:03:06.652Z,100317.16
2023-03-26T03:05:56.363Z,100313.53
2023-03-26T03:08:34.109Z,100305.56
2023-03-26T03:11:22.062Z,100303.72
2023-03-26T03:13:52.338Z,100299.34
2023-03-26T03:16:25.767Z,100296.75
2023-03-26T03:18:57.802Z,100287.28
2023-03-26T03:21:32.427Z,100273.53
2023-03-26T03:24:00.168Z,100282.22
2023-03-26T03:26:31.664Z,100270.03
2023-03-26T03:29:09.358Z,100272.63
2023-03-26T03:31:36.695Z,100268.34
2023-03-26T03:34:06.408Z,100269.41
2023-03-26T03:36:41.210Z,100266.66
2023-03-26T03:39:19.776Z,100263.13
2023-03-26T03:41:49.324Z,100257.84
2023-03-26T03:44:17.682Z,100258.53
2023-03-26T03:46:45.512Z,100262.97
2023-03-26T03:49:14.135Z,100250.72
2023-03-26T03:51:42.566Z,100263.75
2023-03-26T03:54:22.658Z,100255.09
2023-03-26T03:57:12.202Z,100245.44
2023-03-26T03:59:47.802Z,100248.06
2023-03-26T04:02:30.661Z,100242.78
2023-03-26T04:05:04.458Z,100233.22
2023-03-26T04:07:34.062Z,100231.31
2023-03-26T04:10:10.363Z,100236.53
2023-03-26T04:13:03.752Z,100229.47
2023-03-26T04:15:59.522Z,100221.59
2023-03-26T04:18:32.372Z,100216.38
2023-03-26T04:21:07.846Z,100214.66
2023-03-26T04:23:38.242Z,100215.47
2023-03-26T04:26:24.452Z,100205.13
2023-03-26T04:29:17.304Z,100199.16
2023-03-26T04:31:47.245Z,100196.56
2023-03-26T04:34:26.313Z,100201.69
2023-03-26T04:37:07.175Z,100187.06
2023-03-26T04:39:41.823Z,100191.28
2023-03-26T04:42:29.656Z,100189.50
2023-03-26T04:45:17.984Z,100181.78
2023-03-26T04:47:50.277Z,100178.34
2023-03-26T04:50:18.115Z,100177.47
2023-03-26T04:52:45.996Z,100166.16
2023-03-26T04:55:47.164Z,100159.31
2023-03-26T04:58:30.256Z,100148.97
2023-03-26T05:01:11.158Z,100150.00
2023-03-26T05:03:45.851Z,100140.50
2023-03-26T05:06:17.673Z,100131.31
2023-03-26T05:08:46.297Z,100133.84
2023-03-26T05:11:30.857Z,100133.06
2023-03-26T05:13:58.530Z,100136.59
2023-03-26T05:16:28.725Z,100133.13
2023-03-26T05:19:01.063Z,100113.31
2023-03-26T05:21:40.832Z,100114.16
2023-03-26T05:24:08.435Z,100115.91
2023-03-26T05:26:38.611Z,100114.28
2023-03-26T05:29:06.713Z,100108.19
2023-03-26T05:31:42.761Z,100105.66
2023-03-26T05:34:11.460Z,100099.59
2023-03-26T05:36:38.942Z,100095.31
2023-03-26T05:39:27.379Z,100093.47
2023-03-26T05:42:12.721Z,100085.66
2023-03-26T05:45:15.021Z,100089.09
2023-03-26T05:47:50.168Z,100074.28
2023-03-26T05:50:17.971Z,100079.41
2023-03-26T05:52:49.498Z,100081.94
2023-03-26T05:55:35.626Z,100077.56
2023-03-26T05:58:29.653Z,100065.31
2023-03-26T06:01:19.656Z,100066.09
2023-03-26T06:04:19.086Z,100066.00
2023-03-26T06:07:23.446Z,100058.03
2023-03-26T06:10:11.383Z,100054.50
2023-03-26T06:13:03.482Z,100054.50
2023-03-26T06:15:32.200Z,100051.81
2023-03-26T06:18:15.387Z,100045.72
2023-03-26T06:21:02.489Z,100046.53
2023-03-26T06:23:42.763Z,100043.88
2023-03-26T06:26:31.241Z,100038.59
2023-03-26T06:29:20.220Z,100041.94
2023-03-26T06:32:12.399Z,100036.81
2023-03-26T06:34:59.451Z,100038.50
2023-03-26T06:37:28.593Z,100034.13
2023-03-26T06:40:15.963Z,100033.28
2023-03-26T06:43:09.226Z,100044.47
2023-03-26T06:46:02.780Z,100036.72
2023-03-26T06:48:59.745Z,100039.41
2023-03-26T06:51:44.086Z,100034.91
2023-03-26T06:54:30.827Z,100048.91
2023-03-26T06:57:08.579Z,100036.66
2023-03-26T06:59:57.475Z,100036.56
2023-03-26T07:02:43.689Z,100039.03
2023-03-26T07:05:31.256Z,100032.97
2023-03-26T07:08:20.963Z,100033.81
2023-03-26T07:11:08.683Z,100032.06
2023-03-26T07:13:56.705Z,100035.50
2023-03-26T07:16:43.914Z,100031.13
2023-03-26T07:19:31.712Z,100031.13
2023-03-26T07:22:02.277Z,100035.34
2023-03-26T07:24:53.183Z,100030.16
2023-03-26T07:28:24.384Z,100025.78
2023-03-26T07:31:44.637Z,100017.06
2023-03-26T07:35:00.502Z,100010.16
2023-03-26T07:37:52.364Z,100008.63
2023-03-26T07:41:20.317Z,100021.41
2023-03-26T07:44:48.515Z,100010.22
2023-03-26T07:47:33.880Z,100005.09
2023-03-26T07:50:26.406Z,100005.97
2023-03-26T07:53:26.523Z,100003.50
2023-03-26T07:56:42.126Z,100007.78
2023-03-26T08:00:12.911Z,100005.00
2023-03-26T08:03:19.818Z,100008.31
2023-03-26T08:06:24.146Z,100003.94
2023-03-26T08:09:40.453Z,100010.94
2023-03-26T08:13:03.567Z,100005.09
2023-03-26T08:16:19.432Z,100000.66
2023-03-26T08:19:34.939Z,100000.59
2023-03-26T08:22:46.222Z,100002.25
2023-03-26T08:25:40.906Z,100000.50
2023-03-26T08:28:33.715Z,99997.03
2023-03-26T08:31:03.205Z,99991.84
2023-03-26T08:33:32.452Z,99994.44
2023-03-26T08:36:02.101Z,99995.31
2023-03-26T08:38:36.834Z,100000.44
2023-03-26T08:41:17.035Z,99992.63
2023-03-26T08:44:47.819Z,99996.06
2023-03-26T08:48:11.791Z,99996.66
2023-03-26T08:51:17.044Z,100006.06
2023-03-26T08:54:42.790Z,99991.03
2023-03-26T08:58:08.867Z,99987.19
2023-03-26T09:01:40.902Z,99983.19
2023-03-26T09:05:18.227Z,99982.88
2023-03-26T09:08:54.452Z,99980.34
2023-03-26T09:12:13.058Z,99972.28
2023-03-26T09:15:21.352Z,99967.06
2023-03-26T09:18:56.059Z,99978.91
2023-03-26T09:22:18.606Z,99973.59
2023-03-26T09:25:34.623Z,99971.78
2023-03-26T09:29:07.746Z,99974.13
2023-03-26T09:32:17.667Z,99966.22
2023-03-26T09:35:14.985Z,99967.66
2023-03-26T09:38:19.603Z,99971.78
2023-03-26T09:41:44.732Z,99969.84
2023-03-26T09:44:35.948Z,99974.97
2023-03-26T09:48:15.817Z,99972.19
2023-03-26T09:51:14.107Z,99968.50
2023-03-26T09:54:35.505Z,99970.94
2023-03-26T09:57:59.989Z,99957.16
2023-03-26T10:01:40.864Z,99964.88
2023-03-26T10:05:11.980Z,99963.94
2023-03-26T10:08:52.261Z,99968.06
2023-03-26T10:11:33.371Z,99969.66
2023-03-26T10:14:48.815Z,99977.41
2023-03-26T10:18:28.250Z,99970.16
2023-03-26T10:21:47.099Z,99965.03
2023-03-26T10:25:08.285Z,99970.25
2023-03-26T10:28:19.284Z,99972.94
2023-03-26T10:31:22.394Z,99973.78
2023-03-26T10:34:54.345Z,99974.63
2023-03-26T10:38:21.304Z,99975.38
2023-03-26T10:41:25.457Z,99981.84
2023-03-26T10:44:46.830Z,99984.25
2023-03-26T10:47:49.247Z,99980.72
2023-03-26T10:51:25.247Z,99981.56
2023-03-26T10:54:44.917Z,99988.47
2023-03-26T10:57:58.544Z,99986.53
2023-03-26T11:00:29.258Z,99983.16
2023-03-26T11:03:16.064Z,99985.78
2023-03-26T11:06:17.958Z,99987.56
2023-03-26T11:09:14.808Z,99983.91
2023-03-26T11:12:26.275Z,99992.00
2023-03-26T11:15:53.192Z,99998.41
2023-03-26T11:18:52.017Z,99991.75
2023-03-26T11:22:02.471Z,99989.41
2023-03-26T11:25:21.245Z,99996.41
2023-03-26T11:29:04.064Z,100000.97
2023-03-26T11:38:42.712Z,100004.66
2023-03-26T11:41:41.869Z,100008.19
2023-03-26T11:44:41.118Z,100007.19
2023-03-26T11:47:19.358Z,100013.91
2023-03-26T11:50:02.194Z,100010.97
2023-03-26T11:52:32.559Z,100013.50
2023-03-26T11:55:16.348Z,100015.84
2023-03-26T12:00:40.842Z,100019.59
2023-03-26T12:03:24.695Z,100021.97
2023-03-26T12:06:04.887Z,100018.44
2023-03-26T12:08:41.765Z,100020.88
2023-03-26T12:11:18.845Z,100024.97
2023-03-26T12:14:01.766Z,100023.31
2023-03-26T12:16:37.422Z,100024.88
2023-03-26T12:19:25.305Z,100023.97
2023-03-26T12:21:55.762Z,100030.59
2023-03-26T12:24:42.536Z,100022.50
2023-03-26T12:27:30.278Z,100031.66
2023-03-26T12:30:26.247Z,100026.44
2023-03-26T12:33:05.689Z,100024.94
2023-03-26T12:35:42.176Z,100038.66
2023-03-26T12:38:36.014Z,100043.69
2023-03-26T12:44:58.950Z,100040.41
2023-03-26T12:48:00.105Z,100042.19
2023-03-26T12:50:38.720Z,100042.84
2023-03-26T12:53:58.137Z,100038.88
2023-03-26T12:57:11.349Z,100047.53
2023-03-26T12:59:56.768Z,100052.38
2023-03-26T13:03:04.523Z,100057.69
2023-03-26T13:06:18.112Z,100067.69
2023-03-26T13:09:45.036Z,100065.50
2023-03-26T13:13:12.380Z,100066.19
2023-03-26T13:16:33.521Z,100066.63
2023-03-26T13:19:34.608Z,100069.34
2023-03-26T13:22:58.336Z,100067.25
2023-03-26T13:25:58.504Z,100082.38
2023-03-26T13:28:59.669Z,100081.63
2023-03-26T13:32:17.608Z,100084.09
2023-03-26T13:36:03.357Z,100076.25
2023-03-26T13:42:23.691Z,100076.34
2023-03-26T13:45:41.940Z,100090.03
2023-03-26T13:48:39.621Z,100091.91
2023-03-26T13:52:01.427Z,100089.22
2023-03-26T13:55:27.335Z,100109.22
2023-03-26T13:58:10.974Z,100103.25
2023-03-26T14:01:44.101Z,100105.19
2023-03-26T14:04:55.742Z,100114.34
2023-03-26T14:12:33.069Z,100128.53
2023-03-26T14:15:22.165Z,100132.41
2023-03-26T14:22:36.253Z,100148.06
2023-03-26T14:25:58.810Z,100160.47
2023-03-26T14:29:56.771Z,100150.50
2023-03-26T14:33:47.079Z,100151.28
2023-03-26T14:37:27.747Z,100167.94
2023-03-26T14:40:22.402Z,100172.69
2023-03-26T14:43:58.968Z,100172.75
2023-03-26T14:47:33.875Z,100181.66
2023-03-26T14:50:38.456Z,100174.38
2023-03-26T14:53:36.331Z,100192.63
2023-03-26T14:56:39.031Z,100189.94
2023-03-26T14:59:39.628Z,100198.81
2023-03-26T15:02:22.806Z,100194.50
2023-03-26T15:05:24.461Z,100200.59
2023-03-26T15:08:39.018Z,100206.41
2023-03-26T15:12:12.090Z,100203.94
2023-03-26T15:15:17.012Z,100207.56
2023-03-26T15:18:37.363Z,100214.41
2023-03-26T15:21:47.652Z,100225.13
2023-03-26T15:25:11.166Z,100225.88
2023-03-26T15:28:45.845Z,100229.53
2023-03-26T15:32:07.050Z,100250.69
2023-03-26T15:35:32.306Z,100245.47
2023-03-26T15:38:23.249Z,100243.81
2023-03-26T15:41:50.371Z,100264.69
2023-03-26T15:45:24.730Z,100263.38
2023-03-26T15:48:16.562Z,100266.22
2023-03-26T15:51:18.289Z,100285.38
2023-03-26T15:54:46.731Z,100288.13
2023-03-26T15:58:01.903Z,100285.06
2023-03-26T16:00:37.654Z,100300.69
2023-03-26T16:03:11.180Z,100302.56
2023-03-26T16:06:09.150Z,100300.94
2023-03-26T16:09:06.520Z,100307.78
2023-03-26T16:12:31.980Z,100312.19
2023-03-26T16:15:25.383Z,100315.66
2023-03-26T16:18:19.448Z,100324.94
2023-03-26T16:21:31.337Z,100325.94
2023-03-26T16:24:27.005Z,100343.09
2023-03-26T16:27:34.437Z,100351.00
2023-03-26T16:30:01.584Z,100355.59
2023-03-26T16:33:23.454Z,100364.53
2023-03-26T16:36:04.771Z,100369.06
2023-03-26T16:39:00.482Z,100377.09
2023-03-26T16:41:33.721Z,100390.41
2023-03-26T16:44:40.223Z,100397.41
2023-03-26T16:48:09.163Z,100393.31
2023-03-26T16:51:23.924Z,100410.84
2023-03-26T16:54:48.255Z,100414.44
2023-03-26T16:57:42.457Z,100423.16
2023-03-26T17:00:42.705Z,100443.03
2023-03-26T17:03:46.179Z,100432.81
2023-03-26T17:06:45.751Z,100436.53
2023-03-26T17:10:13.140Z,100457.38
2023-03-26T17:13:05.461Z,100449.06
2023-03-26T17:16:21.443Z,100467.38
2023-03-26T17:19:36.018Z,100465.16
2023-03-26T17:23:04.996Z,100489.38
2023-03-26T17:26:05.973Z,100506.78
2023-03-26T17:29:27.278Z,100504.50
2023-03-26T17:32:04.678Z,100519.69
2023-03-26T17:34:47.530Z,100517.78
2023-03-26T17:37:23.828Z,100529.03
2023-03-26T17:39:51.232Z,100531.00
2023-03-26T17:42:36.189Z,100534.59
2023-03-26T17:45:32.255Z,100547.75
2023-03-26T17:48:26.343Z,100548.00
2023-03-26T17:51:57.931Z,100556.81
2023-03-26T17:54:46.640Z,100550.09
2023-03-26T17:57:44.128Z,100569.97
2023-03-26T18:00:29.953Z,100574.41
2023-03-26T18:03:20.339Z,100583.09
2023-03-26T18:06:40.898Z,100585.19
2023-03-26T18:09:52.461Z,100598.25
2023-03-26T18:12:42.501Z,100611.25
2023-03-26T18:16:03.326Z,100619.84
2023-03-26T18:18:46.540Z,100627.84
2023-03-26T18:21:40.156Z,100631.50
2023-03-26T18:24:18.395Z,100635.16
2023-03-26T18:27:11.890Z,100657.00
2023-03-26T18:30:13.958Z,100645.91
2023-03-26T18:33:01.441Z,100650.47
2023-03-26T18:35:57.438Z,100661.03
2023-03-26T18:38:35.678Z,100669.06
2023-03-26T18:41:21.234Z,100668.28
2023-03-26T18:43:49.600Z,100683.88
2023-03-26T18:46:17.646Z,100688.25
2023-03-26T18:48:47.505Z,100680.63
2023-03-26T18:51:22.986Z,100695.41
2023-03-26T18:54:03.326Z,100697.16
2023-03-26T18:56:43.416Z,100704.25
2023-03-26T18:59:32.726Z,100708.69
2023-03-26T19:02:17.402Z,100721.78
2023-03-26T19:04:50.282Z,100733.22
2023-03-26T19:07:29.184Z,100730.56
2023-03-26T19:10:00.372Z,100741.97
2023-03-26T19:12:34.201Z,100741.22
2023-03-26T19:15:17.076Z,100743.00
2023-03-26T19:17:56.860Z,100751.03
2023-03-26T19:20:47.671Z,100768.31
2023-03-26T19:23:28.677Z,100760.56
2023-03-26T19:26:00.156Z,100765.97
2023-03-26T19:28:48.965Z,100791.13
2023-03-26T19:31:16.531Z,100772.88
2023-03-26T19:33:53.403Z,100779.91
2023-03-26T19:36:29.828Z,100805.66
2023-03-26T19:39:34.671Z,100800.50
2023-03-26T19:42:10.159Z,100786.97
2023-03-26T19:44:42.354Z,100796.59
2023-03-26T19:47:48.587Z,100807.88
2023-03-26T19:50:30.347Z,100807.03
2023-03-26T19:53:38.138Z,100819.09
2023-03-26T19:56:15.332Z,100830.56
2023-03-26T19:58:43.608Z,100834.84
2023-03-26T20:01:30.475Z,100843.66
2023-03-26T20:04:06.788Z,100845.47
2023-03-26T20:06:50.556Z,100837.84
2023-03-26T20:09:26.812Z,100853.50
2023-03-26T20:12:01.190Z,100863.19
2023-03-26T20:14:32.474Z,100872.88
2023-03-26T20:17:12.709Z,100870.47
2023-03-26T20:19:43.573Z,100868.91
2023-03-26T20:22:20.113Z,100879.34
2023-03-26T20:24:51.589Z,100891.53
2023-03-26T20:27:22.872Z,100880.53
2023-03-26T20:30:00.152Z,100889.28
2023-03-26T20:32:29.018Z,100894.59
2023-03-26T20:34:57.789Z,100898.19
2023-03-26T20:37:27.271Z,100913.84
2023-03-26T20:39:56.243Z,100913.97
2023-03-26T20:42:24.043Z,100921.03
2023-03-26T20:44:59.179Z,100927.22
2023-03-26T20:47:34.462Z,100924.88
2023-03-26T20:50:05.427Z,100939.75
2023-03-26T20:52:35.794Z,100942.56
2023-03-26T20:55:06.333Z,100954.75
2023-03-26T20:57:34.944Z,100948.00
2023-03-26T21:00:02.641Z,100953.31
2023-03-26T21:02:33.124Z,100956.00
2023-03-26T21:05:03.770Z,100962.06
2023-03-26T21:07:32.304Z,100958.75
2023-03-26T21:10:02.644Z,100969.25
2023-03-26T21:12:44.580Z,100967.63
2023-03-26T21:15:22.906Z,100966.09
2023-03-26T21:17:54.098Z,100977.34
2023-03-26T21:20:25.376Z,100980.03
2023-03-26T21:27:34.436Z,100988.91
2023-03-26T21:30:16.968Z,101001.00
2023-03-26T21:32:47.452Z,101008.88
2023-03-26T21:35:18.465Z,101012.38
2023-03-26T21:37:48.806Z,101018.31
2023-03-26T21:40:21.574Z,101021.75
2023-03-26T21:43:12.723Z,101032.16
2023-03-26T21:45:41.563Z,101039.00
2023-03-26T21:48:11.080Z,101045.84
2023-03-26T21:50:40.629Z,101044.03
2023-03-26T21:53:16.304Z,101047.59
2023-03-26T21:56:29.250Z,101056.31
2023-03-26T22:00:07.166Z,101063.31
2023-03-26T22:03:27.388Z,101070.31
2023-03-26T22:06:17.752Z,101069.63
2023-03-26T22:08:45.645Z,101074.91
2023-03-26T22:11:14.219Z,101073.13
2023-03-26T22:13:54.459Z,101081.78
2023-03-26T22:16:27.601Z,101084.53
2023-03-26T22:18:58.128Z,101093.28
2023-03-26T22:21:28.331Z,101100.34
2023-03-26T22:23:57.289Z,101103.91
2023-03-26T22:26:27.029Z,101103.03
2023-03-26T22:28:54.660Z,101106.53
2023-03-26T22:31:26.588Z,101101.44
2023-03-26T22:33:58.656Z,101107.63
2023-03-26T22:36:27.521Z,101110.28
2023-03-26T22:38:56.712Z,101113.81
2023-03-26T22:41:25.034Z,101126.84
2023-03-26T22:44:16.884Z,101117.50
2023-03-26T22:46:53.317Z,101130.41
2023-03-26T22:49:22.267Z,101139.94
2023-03-26T22:51:50.369Z,101142.59
2023-03-26T22:54:21.417Z,101147.84
2023-03-26T22:56:49.764Z,101163.41
2023-03-26T22:59:25.292Z,101160.06
2023-03-26T23:01:53.380Z,101157.53
2023-03-26T23:04:30.317Z,101161.09
2023-03-26T23:07:04.185Z,101174.06
2023-03-26T23:09:32.499Z,101174.97
2023-03-26T23:12:04.228Z,101179.38
2023-03-26T23:14:33.036Z,101182.84
2023-03-26T23:17:01.578Z,101188.91
2023-03-26T23:19:30.374Z,101200.22
2023-03-26T23:21:58.841Z,101203.66
2023-03-26T23:24:27.643Z,101208.03
2023-03-26T23:26:55.741Z,101206.31
2023-03-26T23:29:23.586Z,101213.22
2023-03-26T23:31:59.022Z,101218.41
2023-03-26T23:34:27.444Z,101217.56
2023-03-26T23:36:58.043Z,101231.38
2023-03-26T23:39:30.747Z,101231.38
2023-03-26T23:42:03.448Z,101240.81
2023-03-26T23:44:32.279Z,101230.47
2023-03-26T23:47:00.536Z,101242.56
2023-03-26T23:49:28.006Z,101244.31
2023-03-26T23:51:55.619Z,101255.56
2023-03-26T23:54:25.889Z,101258.19
2023-03-26T23:56:55.036Z,101254.78
2023-03-26T23:59:23.169Z,101261.69
